createdAt,value
2018-10-11T00:01:24.403Z,17.88
2018-10-11T00:06:29.533Z,17.85
2018-10-11T00:11:33.755Z,17.78
2018-10-11T00:16:38.472Z,17.69
2018-10-11T00:21:44.975Z,17.63
2018-10-11T00:26:49.431Z,17.56
2018-10-11T00:31:53.824Z,17.59
2018-10-11T00:36:58.103Z,17.57
2018-10-11T00:42:02.572Z,17.56
2018-10-11T00:47:12.891Z,17.51
2018-10-11T00:52:19.393Z,17.46
2018-10-11T00:57:24.329Z,17.45
2018-10-11T01:02:29.283Z,17.36
2018-10-11T01:07:34.923Z,17.36
2018-10-11T01:17:57.439Z,17.28
2018-10-11T01:23:01.756Z,17.26
2018-10-11T01:28:06.293Z,17.22
2018-10-11T01:33:11.748Z,17.14
2018-10-11T01:38:16.254Z,17.11
2018-10-11T01:43:21.341Z,17.03
2018-10-11T01:48:25.883Z,16.96
2018-10-11T01:53:31.730Z,16.87
2018-10-11T02:03:52.789Z,16.75
2018-10-11T02:14:14.889Z,16.64
2018-10-11T02:24:38.785Z,16.68
2018-10-11T02:29:45.148Z,16.66
2018-10-11T02:40:04.128Z,16.56
2018-10-11T02:50:25.461Z,16.51
2018-10-11T03:00:44.032Z,16.46
2018-10-11T03:05:49.869Z,16.43
2018-10-11T03:10:55.894Z,16.41
2018-10-11T03:16:01.087Z,16.36
2018-10-11T03:26:20.416Z,16.24
2018-10-11T03:31:25.083Z,16.17
2018-10-11T03:41:44.875Z,16.14
2018-10-11T03:46:50.240Z,16.11
2018-10-11T03:51:55.952Z,16.04
2018-10-11T04:02:15.628Z,15.88
2018-10-11T04:12:35.282Z,15.69
2018-10-11T04:17:40.541Z,15.69
2018-10-11T04:22:45.277Z,15.70
2018-10-11T04:28:00.464Z,15.68
2018-10-11T04:33:05.543Z,15.59
2018-10-11T04:38:11.945Z,15.51
2018-10-11T04:43:18.038Z,15.47
2018-10-11T04:53:39.439Z,15.49
2018-10-11T04:58:45.107Z,15.43
2018-10-11T05:03:51.981Z,15.36
2018-10-11T05:08:56.247Z,15.30
2018-10-11T05:14:00.757Z,15.25
2018-10-11T05:19:05.439Z,15.21
2018-10-11T05:24:09.726Z,15.19
2018-10-11T05:29:14.020Z,15.23
2018-10-11T05:34:18.254Z,15.25
2018-10-11T05:39:23.350Z,15.26
2018-10-11T05:44:27.769Z,15.26
2018-10-11T05:49:32.057Z,15.27
2018-10-11T05:54:36.336Z,15.29
2018-10-11T05:59:40.630Z,15.29
2018-10-11T06:04:44.881Z,15.25
2018-10-11T06:09:49.369Z,15.24
2018-10-11T06:14:53.656Z,15.25
2018-10-11T06:19:57.910Z,15.22
2018-10-11T06:25:02.099Z,15.19
2018-10-11T06:30:06.372Z,15.23
2018-10-11T06:35:10.656Z,15.29
2018-10-11T06:40:15.085Z,15.35
2018-10-11T06:45:19.499Z,15.43
2018-10-11T06:50:23.932Z,15.47
2018-10-11T06:55:28.141Z,15.50
2018-10-11T07:00:32.413Z,15.50
2018-10-11T07:05:36.979Z,15.58
2018-10-11T07:10:41.768Z,15.59
2018-10-11T07:15:46.113Z,15.64
2018-10-11T07:20:50.536Z,15.79
2018-10-11T07:25:54.961Z,15.88
2018-10-11T07:30:59.443Z,16.00
2018-10-11T07:36:03.930Z,16.07
2018-10-11T07:41:08.206Z,16.13
2018-10-11T07:46:12.674Z,16.15
2018-10-11T07:51:17.128Z,16.17
2018-10-11T07:56:22.163Z,16.34
2018-10-11T08:01:26.554Z,16.55
2018-10-11T08:11:46.188Z,17.03
2018-10-11T08:16:51.088Z,17.17
2018-10-11T08:21:55.283Z,17.11
2018-10-11T08:27:04.950Z,17.05
2018-10-11T08:32:09.370Z,17.06
2018-10-11T08:37:13.675Z,17.13
2018-10-11T08:42:18.075Z,17.38
2018-10-11T08:47:22.801Z,17.82
2018-10-11T08:52:27.342Z,18.97
2018-10-11T08:57:32.190Z,20.51
2018-10-11T09:02:36.927Z,22.76
2018-10-11T09:07:41.576Z,25.29
2018-10-11T09:12:45.971Z,27.02
2018-10-11T09:17:50.257Z,28.21
2018-10-11T09:22:54.682Z,29.37
2018-10-11T09:27:59.358Z,30.06
2018-10-11T09:33:03.621Z,31.03
2018-10-11T09:38:08.647Z,31.40
2018-10-11T09:43:13.646Z,31.72
2018-10-11T09:48:19.215Z,31.66
2018-10-11T09:53:23.894Z,30.91
2018-10-11T09:58:28.439Z,30.30
2018-10-11T10:03:33.389Z,28.92
2018-10-11T10:08:37.651Z,27.13
2018-10-11T10:13:42.439Z,25.34
2018-10-11T10:18:47.021Z,24.35
2018-10-11T10:23:51.353Z,23.36
2018-10-11T10:28:55.795Z,22.49
2018-10-11T10:34:00.415Z,21.92
2018-10-11T10:39:06.358Z,21.51
2018-10-11T10:44:10.947Z,21.27
2018-10-11T10:49:15.221Z,21.13
2018-10-11T10:54:23.289Z,21.10
2018-10-11T10:59:27.663Z,21.04
2018-10-11T11:04:31.993Z,21.01
2018-10-11T11:09:35.453Z,20.96
2018-10-11T11:14:39.030Z,21.00
2018-10-11T11:19:42.419Z,21.04
2018-10-11T11:24:45.704Z,21.04
2018-10-11T11:29:49.212Z,21.19
2018-10-11T11:34:52.725Z,21.18
2018-10-11T11:39:56.305Z,21.19
2018-10-11T11:45:00.453Z,21.19
2018-10-11T11:50:13.146Z,21.29
2018-10-11T11:55:16.773Z,21.41
2018-10-11T12:00:23.205Z,21.58
2018-10-11T12:05:26.595Z,22.35
2018-10-11T12:10:30.438Z,24.05
2018-10-11T12:15:34.647Z,25.62
2018-10-11T12:20:39.136Z,26.89
2018-10-11T12:25:43.332Z,27.93
2018-10-11T12:30:46.783Z,28.69
2018-10-11T12:35:51.237Z,28.86
2018-10-11T12:40:55.065Z,29.42
2018-10-11T12:45:58.573Z,29.34
2018-10-11T12:51:02.283Z,30.06
2018-10-11T12:56:05.853Z,30.57
2018-10-11T13:01:09.403Z,31.12
2018-10-11T13:06:13.009Z,31.61
2018-10-11T13:11:16.636Z,32.43
2018-10-11T13:16:20.215Z,33.09
2018-10-11T13:21:23.839Z,33.57
2018-10-11T13:26:28.100Z,34.14
2018-10-11T13:31:32.403Z,32.47
2018-10-11T13:36:37.215Z,31.28
2018-10-11T13:41:41.939Z,30.48
2018-10-11T13:46:46.736Z,29.79
2018-10-11T13:51:51.011Z,28.91
2018-10-11T13:56:58.797Z,28.59
2018-10-11T14:02:00.396Z,28.29
2018-10-11T14:07:04.989Z,28.12
2018-10-11T14:12:09.261Z,27.14
2018-10-11T14:17:13.704Z,26.33
2018-10-11T14:22:18.340Z,25.76
2018-10-11T14:27:23.007Z,25.27
2018-10-11T14:32:27.800Z,25.02
2018-10-11T14:37:32.560Z,24.72
2018-10-11T14:42:37.946Z,24.55
2018-10-11T14:47:42.236Z,24.39
2018-10-11T14:52:46.589Z,24.34
2018-10-11T14:57:51.108Z,24.24
2018-10-11T15:02:55.635Z,24.25
2018-10-11T15:08:00.290Z,24.13
2018-10-11T15:13:04.704Z,24.02
2018-10-11T15:18:09.416Z,24.02
2018-10-11T15:23:13.747Z,23.91
2018-10-11T15:28:18.092Z,23.94
2018-10-11T15:33:22.907Z,23.87
2018-10-11T15:38:27.534Z,23.80
2018-10-11T15:43:32.086Z,23.74
2018-10-11T15:48:36.490Z,23.65
2018-10-11T15:53:41.167Z,23.58
2018-10-11T15:58:45.790Z,23.60
2018-10-11T16:03:50.360Z,23.51
2018-10-11T16:08:55.400Z,23.44
2018-10-11T16:14:03.003Z,23.34
2018-10-11T16:19:09.022Z,23.24
2018-10-11T16:24:13.846Z,23.19
2018-10-11T16:30:47.338Z,23.18
2018-10-11T16:35:52.698Z,23.03
2018-10-11T16:40:57.567Z,22.95
2018-10-11T16:46:02.311Z,22.84
2018-10-11T16:51:06.902Z,22.72
2018-10-11T16:56:12.204Z,22.63
2018-10-11T17:01:16.951Z,22.50
2018-10-11T17:06:21.596Z,22.45
2018-10-11T17:11:26.258Z,22.40
2018-10-11T17:16:30.929Z,22.40
2018-10-11T17:21:35.787Z,22.34
2018-10-11T17:26:40.224Z,22.28
2018-10-11T17:31:44.943Z,22.12
2018-10-11T17:36:49.757Z,21.91
2018-10-11T17:41:54.233Z,21.82
2018-10-11T17:46:59.566Z,21.85
2018-10-11T17:52:04.029Z,21.78
2018-10-11T17:57:08.950Z,21.68
2018-10-11T18:02:15.829Z,21.67
2018-10-11T18:07:20.598Z,21.56
2018-10-11T18:12:26.039Z,21.37
2018-10-11T18:17:32.507Z,21.20
2018-10-11T18:22:37.083Z,21.04
2018-10-11T18:27:41.537Z,20.95
2018-10-11T18:32:46.291Z,20.92
2018-10-11T18:37:50.706Z,20.86
2018-10-11T18:42:55.750Z,20.85
2018-10-11T18:48:00.571Z,20.81
2018-10-11T18:53:05.279Z,20.71
2018-10-11T18:58:14.832Z,20.54
2018-10-11T19:03:19.525Z,20.40
2018-10-11T19:08:23.985Z,20.29
2018-10-11T19:13:29.171Z,20.20
2018-10-11T19:18:33.776Z,20.20
2018-10-11T19:23:38.736Z,20.19
2018-10-11T19:28:43.055Z,20.24
2018-10-11T19:33:47.504Z,20.35
2018-10-11T19:38:52.027Z,20.37
2018-10-11T19:43:56.477Z,20.40
2018-10-11T19:49:01.438Z,20.37
2018-10-11T19:54:05.675Z,20.30
2018-10-11T19:59:15.235Z,20.23
2018-10-11T20:04:19.961Z,20.14
2018-10-11T20:09:29.296Z,20.09
2018-10-11T20:14:34.300Z,20.03
2018-10-11T20:19:52.092Z,20.00
2018-10-11T20:24:56.544Z,19.96
2018-10-11T20:30:00.854Z,19.96
2018-10-11T20:35:05.468Z,19.95
2018-10-11T20:40:09.953Z,19.88
2018-10-11T20:45:14.520Z,19.85
2018-10-11T20:50:19.093Z,19.76
2018-10-11T20:55:23.844Z,19.69
2018-10-11T21:00:28.465Z,19.60
2018-10-11T21:05:32.681Z,19.53
2018-10-11T21:10:36.979Z,19.47
2018-10-11T21:15:41.489Z,19.43
2018-10-11T21:20:45.875Z,19.45
2018-10-11T21:25:50.447Z,19.35
2018-10-11T21:30:54.623Z,19.28
2018-10-11T21:35:58.816Z,19.18
2018-10-11T21:41:03.075Z,19.08
2018-10-11T21:46:07.307Z,18.96
2018-10-11T21:51:11.747Z,18.87
2018-10-11T21:56:16.042Z,18.78
2018-10-11T22:01:22.638Z,18.60
2018-10-11T22:06:27.304Z,18.47
2018-10-11T22:11:32.320Z,18.43
2018-10-11T22:16:36.484Z,18.42
2018-10-11T22:21:40.613Z,18.39
2018-10-11T22:26:44.750Z,18.39
2018-10-11T22:31:48.980Z,18.38
2018-10-11T22:36:53.268Z,18.41
2018-10-11T22:41:57.459Z,18.46
2018-10-11T22:47:01.688Z,18.33
2018-10-11T22:52:06.354Z,18.25
2018-10-11T22:57:10.767Z,18.17
2018-10-11T23:02:15.023Z,18.08
2018-10-11T23:07:19.224Z,17.95
2018-10-11T23:12:23.688Z,17.82
2018-10-11T23:17:27.967Z,17.73
2018-10-11T23:22:32.233Z,17.63
2018-10-11T23:27:36.410Z,17.46
2018-10-11T23:32:41.336Z,17.42
2018-10-11T23:37:45.487Z,17.34
2018-10-11T23:42:49.660Z,17.23
2018-10-11T23:47:54.013Z,17.16
2018-10-11T23:52:58.155Z,17.07
2018-10-11T23:58:03.022Z,17.02
